sensor_id;sensor_type;location;lat;lon;timestamp;P1;durP1;ratioP1;P2;durP2;ratioP2
11665;SDS011;5889;51.350;6.708;2023-01-23T00:02:14;36.73;;;19.10;;
11665;SDS011;5889;51.350;6.708;2023-01-23T00:04:41;42.20;;;21.17;;
11665;SDS011;5889;51.350;6.708;2023-01-23T00:07:08;34.90;;;17.43;;
11665;SDS011;5889;51.350;6.708;2023-01-23T00:09:37;34.17;;;18.70;;
11665;SDS011;5889;51.350;6.708;2023-01-23T00:12:04;36.73;;;19.67;;
11665;SDS011;5889;51.350;6.708;2023-01-23T00:14:31;34.03;;;18.87;;
11665;SDS011;5889;51.350;6.708;2023-01-23T00:16:58;38.87;;;20.10;;
11665;SDS011;5889;51.350;6.708;2023-01-23T00:19:25;39.67;;;19.50;;
11665;SDS011;5889;51.350;6.708;2023-01-23T00:21:52;33.17;;;18.10;;
11665;SDS011;5889;51.350;6.708;2023-01-23T00:24:19;39.77;;;18.47;;
11665;SDS011;5889;51.350;6.708;2023-01-23T00:26:47;33.17;;;18.20;;
11665;SDS011;5889;51.350;6.708;2023-01-23T00:29:14;41.73;;;19.87;;
11665;SDS011;5889;51.350;6.708;2023-01-23T00:31:41;36.00;;;19.67;;
11665;SDS011;5889;51.350;6.708;2023-01-23T00:34:10;36.37;;;18.80;;
11665;SDS011;5889;51.350;6.708;2023-01-23T00:36:40;36.00;;;18.57;;
11665;SDS011;5889;51.350;6.708;2023-01-23T00:39:09;32.97;;;18.47;;
11665;SDS011;5889;51.350;6.708;2023-01-23T00:41:40;32.27;;;18.50;;
11665;SDS011;5889;51.350;6.708;2023-01-23T00:44:08;35.93;;;17.57;;
11665;SDS011;5889;51.350;6.708;2023-01-23T00:46:35;40.77;;;19.43;;
11665;SDS011;5889;51.350;6.708;2023-01-23T00:49:02;31.73;;;18.57;;
11665;SDS011;5889;51.350;6.708;2023-01-23T00:51:29;37.97;;;19.97;;
11665;SDS011;5889;51.350;6.708;2023-01-23T00:53:56;34.53;;;18.97;;
11665;SDS011;5889;51.350;6.708;2023-01-23T00:56:23;31.40;;;17.63;;
11665;SDS011;5889;51.350;6.708;2023-01-23T00:58:50;33.53;;;17.43;;
11665;SDS011;5889;51.350;6.708;2023-01-23T01:01:18;31.03;;;18.13;;
11665;SDS011;5889;51.350;6.708;2023-01-23T01:03:46;33.43;;;17.87;;
11665;SDS011;5889;51.350;6.708;2023-01-23T01:06:14;32.30;;;17.87;;
11665;SDS011;5889;51.350;6.708;2023-01-23T01:08:41;34.70;;;18.50;;
11665;SDS011;5889;51.350;6.708;2023-01-23T01:11:08;32.13;;;17.60;;
11665;SDS011;5889;51.350;6.708;2023-01-23T01:13:35;32.60;;;18.17;;
11665;SDS011;5889;51.350;6.708;2023-01-23T01:16:02;34.60;;;18.73;;
11665;SDS011;5889;51.350;6.708;2023-01-23T01:18:31;37.63;;;18.93;;
11665;SDS011;5889;51.350;6.708;2023-01-23T01:20:59;34.73;;;18.93;;
11665;SDS011;5889;51.350;6.708;2023-01-23T01:23:26;31.13;;;17.67;;
11665;SDS011;5889;51.350;6.708;2023-01-23T01:25:57;35.13;;;18.33;;
11665;SDS011;5889;51.350;6.708;2023-01-23T01:28:24;33.83;;;18.33;;
11665;SDS011;5889;51.350;6.708;2023-01-23T01:30:52;33.40;;;17.90;;
11665;SDS011;5889;51.350;6.708;2023-01-23T01:33:19;34.73;;;17.90;;
11665;SDS011;5889;51.350;6.708;2023-01-23T01:35:49;35.00;;;19.03;;
11665;SDS011;5889;51.350;6.708;2023-01-23T01:38:16;32.00;;;17.50;;
11665;SDS011;5889;51.350;6.708;2023-01-23T01:40:43;35.60;;;19.13;;
11665;SDS011;5889;51.350;6.708;2023-01-23T01:43:14;34.37;;;19.07;;
11665;SDS011;5889;51.350;6.708;2023-01-23T01:45:59;32.27;;;18.23;;
11665;SDS011;5889;51.350;6.708;2023-01-23T01:48:31;31.90;;;18.93;;
11665;SDS011;5889;51.350;6.708;2023-01-23T01:51:02;38.57;;;20.40;;
11665;SDS011;5889;51.350;6.708;2023-01-23T01:53:33;35.77;;;18.70;;
11665;SDS011;5889;51.350;6.708;2023-01-23T01:56:02;41.97;;;21.87;;
11665;SDS011;5889;51.350;6.708;2023-01-23T01:58:29;46.47;;;26.07;;
11665;SDS011;5889;51.350;6.708;2023-01-23T02:00:56;45.00;;;21.77;;
11665;SDS011;5889;51.350;6.708;2023-01-23T02:03:23;45.03;;;22.13;;
11665;SDS011;5889;51.350;6.708;2023-01-23T02:05:51;39.57;;;20.20;;
11665;SDS011;5889;51.350;6.708;2023-01-23T02:08:21;40.70;;;20.43;;
11665;SDS011;5889;51.350;6.708;2023-01-23T02:10:52;34.03;;;18.37;;
11665;SDS011;5889;51.350;6.708;2023-01-23T02:13:21;40.00;;;19.43;;
11665;SDS011;5889;51.350;6.708;2023-01-23T02:15:50;34.13;;;18.80;;
11665;SDS011;5889;51.350;6.708;2023-01-23T02:18:18;34.53;;;17.97;;
11665;SDS011;5889;51.350;6.708;2023-01-23T02:20:46;33.40;;;18.07;;
11665;SDS011;5889;51.350;6.708;2023-01-23T02:23:17;33.23;;;17.80;;
11665;SDS011;5889;51.350;6.708;2023-01-23T02:25:55;37.87;;;18.83;;
11665;SDS011;5889;51.350;6.708;2023-01-23T02:28:34;33.47;;;18.07;;
11665;SDS011;5889;51.350;6.708;2023-01-23T02:31:03;38.73;;;17.47;;
11665;SDS011;5889;51.350;6.708;2023-01-23T02:33:43;34.27;;;18.47;;
11665;SDS011;5889;51.350;6.708;2023-01-23T02:36:12;29.20;;;17.43;;
11665;SDS011;5889;51.350;6.708;2023-01-23T02:38:42;35.83;;;18.17;;
11665;SDS011;5889;51.350;6.708;2023-01-23T02:41:16;31.27;;;16.37;;
11665;SDS011;5889;51.350;6.708;2023-01-23T02:43:46;31.97;;;16.90;;
11665;SDS011;5889;51.350;6.708;2023-01-23T02:46:14;31.83;;;17.47;;
11665;SDS011;5889;51.350;6.708;2023-01-23T02:48:43;32.60;;;18.07;;
11665;SDS011;5889;51.350;6.708;2023-01-23T02:51:11;31.43;;;16.80;;
11665;SDS011;5889;51.350;6.708;2023-01-23T02:53:38;29.10;;;15.90;;
11665;SDS011;5889;51.350;6.708;2023-01-23T02:56:08;29.10;;;16.23;;
11665;SDS011;5889;51.350;6.708;2023-01-23T02:58:36;29.27;;;16.23;;
11665;SDS011;5889;51.350;6.708;2023-01-23T03:01:20;28.87;;;16.30;;
11665;SDS011;5889;51.350;6.708;2023-01-23T03:03:49;27.10;;;15.73;;
11665;SDS011;5889;51.350;6.708;2023-01-23T03:06:17;31.60;;;17.00;;
11665;SDS011;5889;51.350;6.708;2023-01-23T03:08:45;28.57;;;15.83;;
11665;SDS011;5889;51.350;6.708;2023-01-23T03:11:14;28.27;;;14.63;;
11665;SDS011;5889;51.350;6.708;2023-01-23T03:13:44;35.23;;;20.53;;
11665;SDS011;5889;51.350;6.708;2023-01-23T03:16:12;37.37;;;20.53;;
11665;SDS011;5889;51.350;6.708;2023-01-23T03:18:39;33.53;;;17.83;;
11665;SDS011;5889;51.350;6.708;2023-01-23T03:21:06;34.73;;;18.57;;
11665;SDS011;5889;51.350;6.708;2023-01-23T03:23:33;32.23;;;17.50;;
11665;SDS011;5889;51.350;6.708;2023-01-23T03:26:00;31.80;;;17.37;;
11665;SDS011;5889;51.350;6.708;2023-01-23T03:28:28;29.33;;;15.37;;
11665;SDS011;5889;51.350;6.708;2023-01-23T03:31:14;29.17;;;17.20;;
11665;SDS011;5889;51.350;6.708;2023-01-23T03:33:41;27.10;;;16.03;;
11665;SDS011;5889;51.350;6.708;2023-01-23T03:36:09;28.80;;;16.20;;
11665;SDS011;5889;51.350;6.708;2023-01-23T03:38:36;31.50;;;17.40;;
11665;SDS011;5889;51.350;6.708;2023-01-23T03:41:24;30.87;;;15.83;;
11665;SDS011;5889;51.350;6.708;2023-01-23T03:43:50;30.53;;;15.70;;
11665;SDS011;5889;51.350;6.708;2023-01-23T03:46:18;30.97;;;15.77;;
11665;SDS011;5889;51.350;6.708;2023-01-23T03:48:45;28.33;;;15.20;;
11665;SDS011;5889;51.350;6.708;2023-01-23T03:51:12;31.07;;;17.40;;
11665;SDS011;5889;51.350;6.708;2023-01-23T03:53:39;27.90;;;16.13;;
11665;SDS011;5889;51.350;6.708;2023-01-23T03:56:06;27.23;;;15.63;;
11665;SDS011;5889;51.350;6.708;2023-01-23T03:58:33;28.87;;;15.83;;
11665;SDS011;5889;51.350;6.708;2023-01-23T04:01:00;27.50;;;16.20;;
11665;SDS011;5889;51.350;6.708;2023-01-23T04:03:32;28.47;;;16.17;;
11665;SDS011;5889;51.350;6.708;2023-01-23T04:05:59;32.60;;;16.73;;
11665;SDS011;5889;51.350;6.708;2023-01-23T04:08:26;30.33;;;17.50;;
11665;SDS011;5889;51.350;6.708;2023-01-23T04:10:59;28.67;;;16.37;;
11665;SDS011;5889;51.350;6.708;2023-01-23T04:13:27;28.67;;;15.83;;
11665;SDS011;5889;51.350;6.708;2023-01-23T04:15:54;30.53;;;17.23;;
11665;SDS011;5889;51.350;6.708;2023-01-23T04:18:21;30.33;;;16.40;;
11665;SDS011;5889;51.350;6.708;2023-01-23T04:20:50;28.67;;;16.17;;
11665;SDS011;5889;51.350;6.708;2023-01-23T04:23:17;27.53;;;16.60;;
11665;SDS011;5889;51.350;6.708;2023-01-23T04:25:44;28.37;;;15.73;;
11665;SDS011;5889;51.350;6.708;2023-01-23T04:28:10;28.03;;;16.07;;
11665;SDS011;5889;51.350;6.708;2023-01-23T04:30:38;31.77;;;16.77;;
11665;SDS011;5889;51.350;6.708;2023-01-23T04:33:04;25.07;;;15.43;;
11665;SDS011;5889;51.350;6.708;2023-01-23T04:35:32;31.73;;;16.77;;
11665;SDS011;5889;51.350;6.708;2023-01-23T04:38:00;30.90;;;16.70;;
11665;SDS011;5889;51.350;6.708;2023-01-23T04:40:27;28.73;;;16.07;;
11665;SDS011;5889;51.350;6.708;2023-01-23T04:42:55;28.53;;;15.60;;
11665;SDS011;5889;51.350;6.708;2023-01-23T04:45:22;31.03;;;17.77;;
11665;SDS011;5889;51.350;6.708;2023-01-23T04:47:49;29.13;;;16.43;;
11665;SDS011;5889;51.350;6.708;2023-01-23T04:50:16;26.23;;;15.73;;
11665;SDS011;5889;51.350;6.708;2023-01-23T04:52:43;28.70;;;16.10;;
11665;SDS011;5889;51.350;6.708;2023-01-23T04:55:11;29.77;;;15.97;;
11665;SDS011;5889;51.350;6.708;2023-01-23T04:57:38;34.47;;;17.37;;
11665;SDS011;5889;51.350;6.708;2023-01-23T05:00:06;28.20;;;16.13;;
11665;SDS011;5889;51.350;6.708;2023-01-23T05:02:34;31.07;;;17.27;;
11665;SDS011;5889;51.350;6.708;2023-01-23T05:05:01;32.63;;;16.87;;
11665;SDS011;5889;51.350;6.708;2023-01-23T05:07:28;32.00;;;17.37;;
11665;SDS011;5889;51.350;6.708;2023-01-23T05:09:55;36.23;;;18.23;;
11665;SDS011;5889;51.350;6.708;2023-01-23T05:12:23;34.27;;;19.13;;
11665;SDS011;5889;51.350;6.708;2023-01-23T05:14:50;35.33;;;18.17;;
11665;SDS011;5889;51.350;6.708;2023-01-23T05:17:17;33.83;;;17.03;;
11665;SDS011;5889;51.350;6.708;2023-01-23T05:19:44;34.30;;;17.03;;
11665;SDS011;5889;51.350;6.708;2023-01-23T05:22:11;30.77;;;17.80;;
11665;SDS011;5889;51.350;6.708;2023-01-23T05:24:38;34.23;;;18.47;;
11665;SDS011;5889;51.350;6.708;2023-01-23T05:27:05;33.93;;;17.40;;
11665;SDS011;5889;51.350;6.708;2023-01-23T05:29:33;36.87;;;18.90;;
11665;SDS011;5889;51.350;6.708;2023-01-23T05:32:00;32.90;;;18.40;;
11665;SDS011;5889;51.350;6.708;2023-01-23T05:34:27;31.37;;;16.80;;
11665;SDS011;5889;51.350;6.708;2023-01-23T05:36:54;35.97;;;18.27;;
11665;SDS011;5889;51.350;6.708;2023-01-23T05:39:21;33.37;;;18.37;;
11665;SDS011;5889;51.350;6.708;2023-01-23T05:41:48;37.27;;;19.43;;
11665;SDS011;5889;51.350;6.708;2023-01-23T05:44:15;35.03;;;19.40;;
11665;SDS011;5889;51.350;6.708;2023-01-23T05:46:43;34.97;;;18.53;;
11665;SDS011;5889;51.350;6.708;2023-01-23T05:49:10;32.23;;;17.57;;
11665;SDS011;5889;51.350;6.708;2023-01-23T05:51:37;32.90;;;18.70;;
11665;SDS011;5889;51.350;6.708;2023-01-23T05:54:04;31.53;;;18.27;;
11665;SDS011;5889;51.350;6.708;2023-01-23T05:56:31;32.00;;;17.43;;
11665;SDS011;5889;51.350;6.708;2023-01-23T05:58:58;32.73;;;16.87;;
11665;SDS011;5889;51.350;6.708;2023-01-23T06:01:25;33.07;;;18.20;;
11665;SDS011;5889;51.350;6.708;2023-01-23T06:03:53;31.57;;;17.10;;
11665;SDS011;5889;51.350;6.708;2023-01-23T06:06:20;30.17;;;17.53;;
11665;SDS011;5889;51.350;6.708;2023-01-23T06:08:47;31.07;;;17.07;;
11665;SDS011;5889;51.350;6.708;2023-01-23T06:11:14;29.70;;;15.97;;
11665;SDS011;5889;51.350;6.708;2023-01-23T06:13:41;28.63;;;16.37;;
11665;SDS011;5889;51.350;6.708;2023-01-23T06:16:08;28.67;;;15.77;;
11665;SDS011;5889;51.350;6.708;2023-01-23T06:18:35;27.57;;;16.27;;
11665;SDS011;5889;51.350;6.708;2023-01-23T06:21:03;27.63;;;15.90;;
11665;SDS011;5889;51.350;6.708;2023-01-23T06:23:30;25.17;;;14.47;;
11665;SDS011;5889;51.350;6.708;2023-01-23T06:25:58;24.23;;;14.13;;
11665;SDS011;5889;51.350;6.708;2023-01-23T06:28:25;25.13;;;14.80;;
11665;SDS011;5889;51.350;6.708;2023-01-23T06:30:52;25.90;;;14.63;;
11665;SDS011;5889;51.350;6.708;2023-01-23T06:33:19;26.13;;;14.60;;
11665;SDS011;5889;51.350;6.708;2023-01-23T06:35:46;25.20;;;15.20;;
11665;SDS011;5889;51.350;6.708;2023-01-23T06:38:18;26.73;;;14.87;;
11665;SDS011;5889;51.350;6.708;2023-01-23T06:40:46;27.57;;;15.30;;
11665;SDS011;5889;51.350;6.708;2023-01-23T06:43:13;26.37;;;16.10;;
11665;SDS011;5889;51.350;6.708;2023-01-23T06:45:42;26.97;;;15.23;;
11665;SDS011;5889;51.350;6.708;2023-01-23T06:48:09;30.93;;;16.37;;
11665;SDS011;5889;51.350;6.708;2023-01-23T06:50:36;30.33;;;17.13;;
11665;SDS011;5889;51.350;6.708;2023-01-23T06:53:03;28.00;;;16.17;;
11665;SDS011;5889;51.350;6.708;2023-01-23T06:55:32;31.07;;;17.53;;
11665;SDS011;5889;51.350;6.708;2023-01-23T06:57:59;29.87;;;16.27;;
11665;SDS011;5889;51.350;6.708;2023-01-23T07:00:26;32.33;;;16.83;;
11665;SDS011;5889;51.350;6.708;2023-01-23T07:02:53;31.63;;;18.63;;
11665;SDS011;5889;51.350;6.708;2023-01-23T07:05:22;33.40;;;18.93;;
11665;SDS011;5889;51.350;6.708;2023-01-23T07:07:50;36.67;;;18.90;;
11665;SDS011;5889;51.350;6.708;2023-01-23T07:10:17;36.30;;;19.90;;
11665;SDS011;5889;51.350;6.708;2023-01-23T07:12:45;34.77;;;18.83;;
11665;SDS011;5889;51.350;6.708;2023-01-23T07:15:12;33.97;;;18.53;;
11665;SDS011;5889;51.350;6.708;2023-01-23T07:17:39;36.93;;;19.60;;
11665;SDS011;5889;51.350;6.708;2023-01-23T07:20:06;37.90;;;20.27;;
11665;SDS011;5889;51.350;6.708;2023-01-23T07:22:34;39.17;;;20.40;;
11665;SDS011;5889;51.350;6.708;2023-01-23T07:25:01;34.60;;;19.17;;
11665;SDS011;5889;51.350;6.708;2023-01-23T07:27:28;37.73;;;19.47;;
11665;SDS011;5889;51.350;6.708;2023-01-23T07:29:56;35.87;;;19.43;;
11665;SDS011;5889;51.350;6.708;2023-01-23T07:32:23;38.23;;;20.93;;
11665;SDS011;5889;51.350;6.708;2023-01-23T07:34:50;39.90;;;21.03;;
11665;SDS011;5889;51.350;6.708;2023-01-23T07:37:17;38.87;;;21.43;;
11665;SDS011;5889;51.350;6.708;2023-01-23T07:39:44;44.63;;;21.43;;
11665;SDS011;5889;51.350;6.708;2023-01-23T07:42:11;44.60;;;21.63;;
11665;SDS011;5889;51.350;6.708;2023-01-23T07:44:38;40.23;;;21.37;;
11665;SDS011;5889;51.350;6.708;2023-01-23T07:47:06;44.43;;;22.00;;
11665;SDS011;5889;51.350;6.708;2023-01-23T07:49:33;43.80;;;21.37;;
11665;SDS011;5889;51.350;6.708;2023-01-23T07:52:00;45.00;;;22.90;;
11665;SDS011;5889;51.350;6.708;2023-01-23T07:54:27;46.17;;;23.47;;
11665;SDS011;5889;51.350;6.708;2023-01-23T07:56:54;46.53;;;23.17;;
11665;SDS011;5889;51.350;6.708;2023-01-23T07:59:21;48.37;;;24.30;;
11665;SDS011;5889;51.350;6.708;2023-01-23T08:01:48;48.10;;;24.27;;
11665;SDS011;5889;51.350;6.708;2023-01-23T08:04:18;46.67;;;22.30;;
11665;SDS011;5889;51.350;6.708;2023-01-23T08:06:45;51.47;;;23.70;;
11665;SDS011;5889;51.350;6.708;2023-01-23T08:09:12;49.60;;;23.13;;
11665;SDS011;5889;51.350;6.708;2023-01-23T08:11:39;44.50;;;22.07;;
11665;SDS011;5889;51.350;6.708;2023-01-23T08:14:06;48.80;;;23.00;;
11665;SDS011;5889;51.350;6.708;2023-01-23T08:16:33;49.03;;;21.87;;
11665;SDS011;5889;51.350;6.708;2023-01-23T08:19:00;48.90;;;23.03;;
11665;SDS011;5889;51.350;6.708;2023-01-23T08:21:28;46.63;;;22.23;;
11665;SDS011;5889;51.350;6.708;2023-01-23T08:23:55;46.10;;;21.20;;
11665;SDS011;5889;51.350;6.708;2023-01-23T08:26:22;48.43;;;22.23;;
11665;SDS011;5889;51.350;6.708;2023-01-23T08:28:49;42.83;;;21.47;;
11665;SDS011;5889;51.350;6.708;2023-01-23T08:31:16;44.33;;;22.10;;
11665;SDS011;5889;51.350;6.708;2023-01-23T08:33:43;43.40;;;21.40;;
11665;SDS011;5889;51.350;6.708;2023-01-23T08:36:10;38.53;;;19.40;;
11665;SDS011;5889;51.350;6.708;2023-01-23T08:38:39;36.70;;;18.60;;
11665;SDS011;5889;51.350;6.708;2023-01-23T08:41:07;37.03;;;18.23;;
11665;SDS011;5889;51.350;6.708;2023-01-23T08:43:36;35.30;;;18.83;;
11665;SDS011;5889;51.350;6.708;2023-01-23T08:46:05;39.03;;;18.87;;
11665;SDS011;5889;51.350;6.708;2023-01-23T08:48:33;38.17;;;19.13;;
11665;SDS011;5889;51.350;6.708;2023-01-23T08:51:01;39.17;;;19.47;;
11665;SDS011;5889;51.350;6.708;2023-01-23T08:53:30;36.33;;;19.73;;
11665;SDS011;5889;51.350;6.708;2023-01-23T08:55:59;38.80;;;20.60;;
11665;SDS011;5889;51.350;6.708;2023-01-23T08:58:27;36.83;;;18.73;;
11665;SDS011;5889;51.350;6.708;2023-01-23T09:00:54;35.13;;;18.00;;
11665;SDS011;5889;51.350;6.708;2023-01-23T09:03:21;38.40;;;18.73;;
11665;SDS011;5889;51.350;6.708;2023-01-23T09:05:48;36.23;;;18.43;;
11665;SDS011;5889;51.350;6.708;2023-01-23T09:08:15;36.70;;;19.10;;
11665;SDS011;5889;51.350;6.708;2023-01-23T09:10:43;33.50;;;17.57;;
11665;SDS011;5889;51.350;6.708;2023-01-23T09:13:11;34.10;;;18.77;;
11665;SDS011;5889;51.350;6.708;2023-01-23T09:15:38;34.63;;;18.23;;
11665;SDS011;5889;51.350;6.708;2023-01-23T09:18:06;34.67;;;18.07;;
11665;SDS011;5889;51.350;6.708;2023-01-23T09:20:33;35.30;;;18.50;;
11665;SDS011;5889;51.350;6.708;2023-01-23T09:23:00;31.77;;;17.20;;
11665;SDS011;5889;51.350;6.708;2023-01-23T09:25:26;34.03;;;18.00;;
11665;SDS011;5889;51.350;6.708;2023-01-23T09:27:55;33.63;;;16.77;;
11665;SDS011;5889;51.350;6.708;2023-01-23T09:30:23;34.87;;;17.80;;
11665;SDS011;5889;51.350;6.708;2023-01-23T09:32:50;31.37;;;16.97;;
11665;SDS011;5889;51.350;6.708;2023-01-23T09:35:18;30.43;;;16.87;;
11665;SDS011;5889;51.350;6.708;2023-01-23T09:37:47;30.23;;;16.77;;
11665;SDS011;5889;51.350;6.708;2023-01-23T09:40:27;32.00;;;16.43;;
11665;SDS011;5889;51.350;6.708;2023-01-23T09:42:58;29.57;;;16.33;;
11665;SDS011;5889;51.350;6.708;2023-01-23T09:45:29;27.60;;;15.57;;
11665;SDS011;5889;51.350;6.708;2023-01-23T09:48:00;29.20;;;15.57;;
11665;SDS011;5889;51.350;6.708;2023-01-23T09:50:35;28.10;;;15.97;;
11665;SDS011;5889;51.350;6.708;2023-01-23T09:53:07;26.53;;;14.43;;
11665;SDS011;5889;51.350;6.708;2023-01-23T09:55:39;27.90;;;14.93;;
11665;SDS011;5889;51.350;6.708;2023-01-23T09:58:10;26.87;;;15.20;;
11665;SDS011;5889;51.350;6.708;2023-01-23T10:00:44;23.93;;;14.63;;
11665;SDS011;5889;51.350;6.708;2023-01-23T10:03:13;26.93;;;14.93;;
11665;SDS011;5889;51.350;6.708;2023-01-23T10:05:42;27.53;;;14.57;;
11665;SDS011;5889;51.350;6.708;2023-01-23T10:08:20;25.80;;;14.63;;
11665;SDS011;5889;51.350;6.708;2023-01-23T10:10:59;22.13;;;13.47;;
11665;SDS011;5889;51.350;6.708;2023-01-23T10:13:38;26.97;;;14.33;;
11665;SDS011;5889;51.350;6.708;2023-01-23T10:16:20;23.63;;;13.53;;
11665;SDS011;5889;51.350;6.708;2023-01-23T10:19:08;24.27;;;13.27;;
11665;SDS011;5889;51.350;6.708;2023-01-23T10:21:44;24.20;;;13.27;;
11665;SDS011;5889;51.350;6.708;2023-01-23T10:24:21;23.17;;;12.43;;
11665;SDS011;5889;51.350;6.708;2023-01-23T10:27:01;19.60;;;11.60;;
11665;SDS011;5889;51.350;6.708;2023-01-23T10:29:37;19.03;;;11.17;;
11665;SDS011;5889;51.350;6.708;2023-01-23T10:32:14;22.77;;;13.63;;
11665;SDS011;5889;51.350;6.708;2023-01-23T10:34:50;20.83;;;11.73;;
11665;SDS011;5889;51.350;6.708;2023-01-23T10:37:24;20.80;;;11.60;;
11665;SDS011;5889;51.350;6.708;2023-01-23T10:40:04;18.47;;;11.27;;
11665;SDS011;5889;51.350;6.708;2023-01-23T10:42:35;24.20;;;12.10;;
11665;SDS011;5889;51.350;6.708;2023-01-23T10:45:02;17.97;;;11.17;;
11665;SDS011;5889;51.350;6.708;2023-01-23T10:47:33;18.67;;;10.43;;
11665;SDS011;5889;51.350;6.708;2023-01-23T10:50:02;19.03;;;11.63;;
11665;SDS011;5889;51.350;6.708;2023-01-23T10:52:31;19.87;;;10.97;;
11665;SDS011;5889;51.350;6.708;2023-01-23T10:55:01;20.07;;;11.13;;
11665;SDS011;5889;51.350;6.708;2023-01-23T10:57:31;17.10;;;10.20;;
11665;SDS011;5889;51.350;6.708;2023-01-23T11:00:16;19.20;;;10.43;;
11665;SDS011;5889;51.350;6.708;2023-01-23T11:02:48;16.90;;;10.43;;
11665;SDS011;5889;51.350;6.708;2023-01-23T11:08:07;20.27;;;11.60;;
11665;SDS011;5889;51.350;6.708;2023-01-23T11:10:48;18.53;;;11.27;;
11665;SDS011;5889;51.350;6.708;2023-01-23T11:13:23;16.73;;;10.37;;
11665;SDS011;5889;51.350;6.708;2023-01-23T11:15:52;19.77;;;11.57;;
11665;SDS011;5889;51.350;6.708;2023-01-23T11:18:31;18.70;;;10.67;;
11665;SDS011;5889;51.350;6.708;2023-01-23T11:21:00;20.70;;;12.07;;
11665;SDS011;5889;51.350;6.708;2023-01-23T11:23:33;18.87;;;11.33;;
11665;SDS011;5889;51.350;6.708;2023-01-23T11:26:00;18.67;;;10.63;;
11665;SDS011;5889;51.350;6.708;2023-01-23T11:28:28;20.03;;;11.87;;
11665;SDS011;5889;51.350;6.708;2023-01-23T11:31:00;22.10;;;12.03;;
11665;SDS011;5889;51.350;6.708;2023-01-23T11:33:35;20.57;;;10.87;;
11665;SDS011;5889;51.350;6.708;2023-01-23T11:36:10;21.40;;;11.97;;
11665;SDS011;5889;51.350;6.708;2023-01-23T11:38:50;17.57;;;10.97;;
11665;SDS011;5889;51.350;6.708;2023-01-23T11:41:20;16.93;;;10.50;;
11665;SDS011;5889;51.350;6.708;2023-01-23T11:43:53;20.30;;;11.90;;
11665;SDS011;5889;51.350;6.708;2023-01-23T11:46:24;18.53;;;10.63;;
11665;SDS011;5889;51.350;6.708;2023-01-23T11:49:07;19.83;;;11.10;;
11665;SDS011;5889;51.350;6.708;2023-01-23T11:51:44;17.00;;;10.23;;
11665;SDS011;5889;51.350;6.708;2023-01-23T11:54:24;17.67;;;10.30;;
11665;SDS011;5889;51.350;6.708;2023-01-23T11:57:08;16.20;;;10.00;;
11665;SDS011;5889;51.350;6.708;2023-01-23T11:59:43;15.40;;;10.30;;
11665;SDS011;5889;51.350;6.708;2023-01-23T12:05:34;14.03;;;9.50;;
11665;SDS011;5889;51.350;6.708;2023-01-23T12:08:18;16.03;;;10.30;;
11665;SDS011;5889;51.350;6.708;2023-01-23T12:10:50;15.17;;;10.07;;
11665;SDS011;5889;51.350;6.708;2023-01-23T12:13:34;14.57;;;9.80;;
11665;SDS011;5889;51.350;6.708;2023-01-23T12:16:12;14.33;;;8.97;;
11665;SDS011;5889;51.350;6.708;2023-01-23T12:18:48;14.40;;;9.07;;
11665;SDS011;5889;51.350;6.708;2023-01-23T12:21:31;12.43;;;8.33;;
11665;SDS011;5889;51.350;6.708;2023-01-23T12:24:09;14.97;;;8.43;;
11665;SDS011;5889;51.350;6.708;2023-01-23T12:26:45;14.27;;;8.43;;
11665;SDS011;5889;51.350;6.708;2023-01-23T12:29:35;12.30;;;7.80;;
11665;SDS011;5889;51.350;6.708;2023-01-23T12:32:26;14.27;;;8.37;;
11665;SDS011;5889;51.350;6.708;2023-01-23T12:35:04;11.97;;;8.13;;
11665;SDS011;5889;51.350;6.708;2023-01-23T12:37:50;10.83;;;7.23;;
11665;SDS011;5889;51.350;6.708;2023-01-23T12:40:27;12.47;;;7.90;;
11665;SDS011;5889;51.350;6.708;2023-01-23T12:43:01;11.13;;;7.37;;
11665;SDS011;5889;51.350;6.708;2023-01-23T12:45:34;12.17;;;7.63;;
11665;SDS011;5889;51.350;6.708;2023-01-23T12:48:05;12.60;;;7.80;;
11665;SDS011;5889;51.350;6.708;2023-01-23T12:50:39;12.60;;;7.60;;
11665;SDS011;5889;51.350;6.708;2023-01-23T12:53:12;12.60;;;7.63;;
11665;SDS011;5889;51.350;6.708;2023-01-23T12:55:42;9.90;;;7.27;;
11665;SDS011;5889;51.350;6.708;2023-01-23T12:58:19;13.43;;;7.87;;
11665;SDS011;5889;51.350;6.708;2023-01-23T13:00:51;10.27;;;6.73;;
11665;SDS011;5889;51.350;6.708;2023-01-23T13:03:43;10.07;;;6.53;;
11665;SDS011;5889;51.350;6.708;2023-01-23T13:06:48;13.70;;;7.00;;
11665;SDS011;5889;51.350;6.708;2023-01-23T13:09:25;8.13;;;5.90;;
11665;SDS011;5889;51.350;6.708;2023-01-23T13:12:11;9.20;;;6.40;;
11665;SDS011;5889;51.350;6.708;2023-01-23T13:14:45;8.37;;;6.57;;
11665;SDS011;5889;51.350;6.708;2023-01-23T13:17:27;9.33;;;6.63;;
11665;SDS011;5889;51.350;6.708;2023-01-23T13:20:06;9.33;;;6.70;;
11665;SDS011;5889;51.350;6.708;2023-01-23T13:23:26;9.00;;;6.60;;
11665;SDS011;5889;51.350;6.708;2023-01-23T13:26:20;9.50;;;7.13;;
11665;SDS011;5889;51.350;6.708;2023-01-23T13:28:53;10.43;;;7.20;;
11665;SDS011;5889;51.350;6.708;2023-01-23T13:31:23;12.00;;;7.87;;
11665;SDS011;5889;51.350;6.708;2023-01-23T13:40:16;10.80;;;7.40;;
11665;SDS011;5889;51.350;6.708;2023-01-23T13:42:49;14.10;;;8.50;;
11665;SDS011;5889;51.350;6.708;2023-01-23T13:45:26;15.67;;;8.33;;
11665;SDS011;5889;51.350;6.708;2023-01-23T13:48:00;10.70;;;7.60;;
11665;SDS011;5889;51.350;6.708;2023-01-23T13:51:09;13.90;;;7.80;;
11665;SDS011;5889;51.350;6.708;2023-01-23T13:53:42;11.63;;;7.90;;
11665;SDS011;5889;51.350;6.708;2023-01-23T13:56:28;13.53;;;8.93;;
11665;SDS011;5889;51.350;6.708;2023-01-23T13:59:10;12.60;;;8.10;;
11665;SDS011;5889;51.350;6.708;2023-01-23T14:01:46;10.20;;;7.87;;
11665;SDS011;5889;51.350;6.708;2023-01-23T14:04:35;12.03;;;8.37;;
11665;SDS011;5889;51.350;6.708;2023-01-23T14:07:24;12.20;;;8.37;;
11665;SDS011;5889;51.350;6.708;2023-01-23T14:10:11;12.80;;;8.50;;
11665;SDS011;5889;51.350;6.708;2023-01-23T14:12:46;12.53;;;8.67;;
11665;SDS011;5889;51.350;6.708;2023-01-23T14:15:19;16.33;;;9.30;;
11665;SDS011;5889;51.350;6.708;2023-01-23T14:18:12;15.27;;;9.83;;
11665;SDS011;5889;51.350;6.708;2023-01-23T14:20:43;15.30;;;9.20;;
11665;SDS011;5889;51.350;6.708;2023-01-23T14:23:19;13.70;;;8.90;;
11665;SDS011;5889;51.350;6.708;2023-01-23T14:25:54;13.60;;;8.87;;
11665;SDS011;5889;51.350;6.708;2023-01-23T14:28:22;13.90;;;9.47;;
11665;SDS011;5889;51.350;6.708;2023-01-23T14:30:58;17.77;;;10.10;;
11665;SDS011;5889;51.350;6.708;2023-01-23T14:33:27;15.23;;;9.97;;
11665;SDS011;5889;51.350;6.708;2023-01-23T14:36:04;16.73;;;9.10;;
11665;SDS011;5889;51.350;6.708;2023-01-23T14:38:32;13.30;;;9.23;;
11665;SDS011;5889;51.350;6.708;2023-01-23T14:41:02;12.67;;;8.80;;
11665;SDS011;5889;51.350;6.708;2023-01-23T14:43:31;15.07;;;9.80;;
11665;SDS011;5889;51.350;6.708;2023-01-23T14:46:02;17.57;;;10.83;;
11665;SDS011;5889;51.350;6.708;2023-01-23T14:48:32;16.67;;;11.43;;
11665;SDS011;5889;51.350;6.708;2023-01-23T14:51:06;18.47;;;10.97;;
11665;SDS011;5889;51.350;6.708;2023-01-23T14:53:38;23.43;;;13.00;;
11665;SDS011;5889;51.350;6.708;2023-01-23T14:56:06;27.47;;;14.13;;
11665;SDS011;5889;51.350;6.708;2023-01-23T14:58:36;21.13;;;13.70;;
11665;SDS011;5889;51.350;6.708;2023-01-23T15:01:05;22.10;;;13.50;;
11665;SDS011;5889;51.350;6.708;2023-01-23T15:03:33;23.27;;;13.40;;
11665;SDS011;5889;51.350;6.708;2023-01-23T15:06:02;21.93;;;13.17;;
11665;SDS011;5889;51.350;6.708;2023-01-23T15:08:33;22.10;;;14.17;;
11665;SDS011;5889;51.350;6.708;2023-01-23T15:11:01;21.77;;;13.80;;